createdAt,value
2018-01-28T00:00:10.232Z,90.59
2018-01-28T00:02:37.858Z,90.48
2018-01-28T00:05:05.503Z,90.76
2018-01-28T00:07:33.105Z,91.21
2018-01-28T00:10:00.675Z,91.15
2018-01-28T00:12:28.298Z,91.00
2018-01-28T00:14:55.890Z,91.06
2018-01-28T00:17:23.530Z,90.99
2018-01-28T00:19:51.082Z,90.98
2018-01-28T00:22:18.773Z,91.14
2018-01-28T00:24:46.355Z,91.34
2018-01-28T00:27:13.935Z,91.19
2018-01-28T00:29:41.581Z,91.20
2018-01-28T00:32:09.220Z,91.37
2018-01-28T00:34:36.818Z,91.44
2018-01-28T00:37:04.427Z,91.19
2018-01-28T00:39:31.996Z,91.01
2018-01-28T00:41:59.576Z,91.04
2018-01-28T00:44:27.193Z,90.93
2018-01-28T00:46:54.764Z,90.79
2018-01-28T00:49:22.334Z,90.75
2018-01-28T00:51:50.028Z,90.66
2018-01-28T00:54:17.722Z,90.38
2018-01-28T00:56:45.423Z,90.08
2018-01-28T00:59:13.047Z,90.02
2018-01-28T01:01:40.624Z,90.03
2018-01-28T01:04:08.181Z,90.12
2018-01-28T01:06:35.812Z,89.97
2018-01-28T01:09:03.477Z,89.90
2018-01-28T01:11:31.069Z,90.06
2018-01-28T01:13:58.690Z,90.48
2018-01-28T01:16:26.268Z,91.01
2018-01-28T01:18:53.827Z,90.64
2018-01-28T01:21:21.431Z,90.57
2018-01-28T01:23:49.016Z,90.28
2018-01-28T01:26:16.583Z,90.12
2018-01-28T01:28:44.196Z,90.18
2018-01-28T01:31:11.777Z,90.20
2018-01-28T01:33:39.331Z,90.39
2018-01-28T01:36:06.946Z,90.25
2018-01-28T01:38:34.523Z,90.33
2018-01-28T01:41:02.108Z,90.45
2018-01-28T01:43:29.730Z,90.31
2018-01-28T01:45:57.294Z,90.50
2018-01-28T01:48:24.859Z,90.70
2018-01-28T01:50:52.501Z,90.76
2018-01-28T01:53:20.076Z,90.97
2018-01-28T01:55:47.640Z,90.74
2018-01-28T01:58:15.266Z,90.73
2018-01-28T02:00:42.886Z,90.78
2018-01-28T02:03:10.543Z,90.71
2018-01-28T02:05:38.229Z,90.76
2018-01-28T02:08:05.806Z,90.85
2018-01-28T02:10:33.403Z,90.60
2018-01-28T02:13:01.071Z,90.25
2018-01-28T02:15:28.656Z,89.87
2018-01-28T02:17:56.315Z,90.22
2018-01-28T02:20:23.932Z,90.28
2018-01-28T02:22:51.526Z,90.25
2018-01-28T02:25:19.081Z,90.28
2018-01-28T02:27:46.718Z,90.46
2018-01-28T02:30:14.300Z,90.28
2018-01-28T02:32:41.880Z,89.90
2018-01-28T02:35:09.506Z,89.84
2018-01-28T02:37:37.086Z,89.71
2018-01-28T02:40:04.655Z,89.80
2018-01-28T02:42:32.274Z,89.81
2018-01-28T02:44:59.928Z,89.84
2018-01-28T02:47:27.617Z,89.60
2018-01-28T02:49:55.407Z,89.66
2018-01-28T02:52:22.977Z,89.85
2018-01-28T02:54:50.738Z,89.85
2018-01-28T02:57:18.364Z,89.92
2018-01-28T02:59:45.951Z,89.92
2018-01-28T03:02:13.539Z,89.88
2018-01-28T03:04:41.154Z,89.97
2018-01-28T03:07:08.844Z,89.95
2018-01-28T03:09:36.416Z,89.50
2018-01-28T03:12:04.028Z,89.86
2018-01-28T03:14:31.607Z,90.04
2018-01-28T03:16:59.312Z,90.33
2018-01-28T03:19:26.968Z,89.90
2018-01-28T03:21:54.530Z,89.83
2018-01-28T03:24:22.206Z,89.69
2018-01-28T03:26:49.837Z,89.83
2018-01-28T03:29:17.437Z,89.70
2018-01-28T03:31:45.406Z,89.68
2018-01-28T03:34:13.144Z,88.88
2018-01-28T03:36:40.761Z,88.98
2018-01-28T03:39:08.457Z,88.57
2018-01-28T03:41:36.079Z,88.74
2018-01-28T03:44:03.663Z,88.62
2018-01-28T03:46:31.248Z,88.50
2018-01-28T03:48:59.096Z,88.44
2018-01-28T03:51:26.770Z,88.32
2018-01-28T03:53:54.444Z,87.89
2018-01-28T03:56:22.057Z,87.67
2018-01-28T03:58:49.754Z,87.79
2018-01-28T04:01:17.341Z,88.31
2018-01-28T04:03:45.000Z,88.52
2018-01-28T04:06:12.581Z,88.33
2018-01-28T04:08:40.414Z,88.25
2018-01-28T04:11:08.046Z,88.51
2018-01-28T04:13:35.620Z,88.87
2018-01-28T04:16:03.234Z,88.83
2018-01-28T04:18:31.268Z,88.64
2018-01-28T04:20:58.823Z,88.57
2018-01-28T04:23:26.395Z,88.48
2018-01-28T04:25:54.008Z,88.76
2018-01-28T04:28:21.584Z,88.69
2018-01-28T04:30:49.151Z,88.39
2018-01-28T04:33:16.773Z,88.28
2018-01-28T04:35:44.484Z,88.43
2018-01-28T04:38:12.056Z,88.26
2018-01-28T04:40:39.663Z,88.71
2018-01-28T04:43:07.230Z,88.73
2018-01-28T04:45:34.812Z,88.59
2018-01-28T04:48:02.587Z,88.52
2018-01-28T04:50:30.246Z,88.29
2018-01-28T04:52:57.841Z,87.88
2018-01-28T04:55:25.472Z,87.40
2018-01-28T04:57:53.102Z,87.38
2018-01-28T05:00:20.731Z,87.21
2018-01-28T05:02:48.399Z,87.74
2018-01-28T05:05:16.029Z,87.99
2018-01-28T05:07:43.693Z,87.80
2018-01-28T05:10:11.471Z,87.46
2018-01-28T05:12:39.083Z,87.45
2018-01-28T05:15:06.679Z,87.53
2018-01-28T05:17:34.443Z,87.35
2018-01-28T05:20:02.080Z,87.18
2018-01-28T05:22:29.701Z,87.89
2018-01-28T05:24:57.318Z,88.15
2018-01-28T05:27:24.947Z,88.37
2018-01-28T05:29:52.588Z,88.49
2018-01-28T05:32:20.297Z,89.07
2018-01-28T05:34:47.980Z,89.57
2018-01-28T05:37:15.628Z,89.30
2018-01-28T05:39:43.234Z,88.91
2018-01-28T05:42:10.948Z,88.52
2018-01-28T05:44:38.537Z,88.15
2018-01-28T05:47:06.149Z,88.12
2018-01-28T05:49:33.734Z,88.40
2018-01-28T05:52:01.352Z,88.70
2018-01-28T05:54:28.965Z,88.65
2018-01-28T05:56:56.554Z,88.49
2018-01-28T05:59:24.138Z,88.35
2018-01-28T06:01:51.793Z,88.17
2018-01-28T06:04:19.395Z,87.86
2018-01-28T06:06:47.163Z,87.75
2018-01-28T06:09:14.774Z,87.72
2018-01-28T06:11:42.347Z,86.96
2018-01-28T06:14:09.907Z,86.42
2018-01-28T06:16:37.516Z,86.29
2018-01-28T06:19:05.110Z,86.27
2018-01-28T06:21:32.695Z,86.42
2018-01-28T06:24:00.312Z,85.93
2018-01-28T06:26:27.931Z,85.57
2018-01-28T06:28:55.565Z,85.71
2018-01-28T06:31:23.184Z,85.52
2018-01-28T06:33:50.763Z,84.61
2018-01-28T06:36:18.343Z,84.20
2018-01-28T06:38:46.040Z,84.00
2018-01-28T06:41:13.810Z,84.00
2018-01-28T06:43:41.375Z,82.76
2018-01-28T06:46:08.987Z,81.91
2018-01-28T06:48:36.616Z,81.04
2018-01-28T06:51:04.210Z,80.02
2018-01-28T06:53:31.927Z,81.13
2018-01-28T06:55:59.516Z,79.16
2018-01-28T06:58:27.110Z,77.24
2018-01-28T07:00:54.724Z,84.32
2018-01-28T07:03:22.307Z,75.85
2018-01-28T07:05:49.888Z,76.44
2018-01-28T07:08:17.554Z,71.73
2018-01-28T07:10:45.127Z,73.35
2018-01-28T07:13:12.727Z,76.67
2018-01-28T07:15:40.356Z,73.58
2018-01-28T07:18:07.963Z,76.28
2018-01-28T07:20:35.539Z,71.80
2018-01-28T07:23:03.154Z,70.30
2018-01-28T07:25:30.733Z,69.91
2018-01-28T07:27:58.342Z,65.79
2018-01-28T07:30:25.959Z,65.07
2018-01-28T07:32:53.539Z,63.89
2018-01-28T07:35:21.099Z,63.54
2018-01-28T07:37:48.706Z,64.04
2018-01-28T07:40:16.489Z,65.78
2018-01-28T07:42:44.079Z,68.42
2018-01-28T07:45:11.700Z,70.40
2018-01-28T07:47:39.270Z,67.41
2018-01-28T07:50:06.929Z,64.45
2018-01-28T07:52:34.558Z,60.55
2018-01-28T07:55:02.132Z,57.98
2018-01-28T07:57:29.915Z,57.53
2018-01-28T07:59:57.592Z,58.77
2018-01-28T08:02:25.181Z,53.95
2018-01-28T08:04:52.808Z,56.50
2018-01-28T08:07:20.449Z,56.07
2018-01-28T08:09:49.660Z,56.87
2018-01-28T08:12:19.162Z,69.06
2018-01-28T08:14:46.799Z,62.40
2018-01-28T08:17:14.396Z,58.36
2018-01-28T08:19:42.338Z,59.89
2018-01-28T08:22:09.975Z,56.94
2018-01-28T08:24:37.603Z,58.07
2018-01-28T08:27:20.899Z,57.44
2018-01-28T08:29:48.539Z,51.60
2018-01-28T08:32:16.157Z,53.29
2018-01-28T08:34:43.806Z,50.76
2018-01-28T08:37:11.364Z,50.94
2018-01-28T08:39:38.970Z,48.44
2018-01-28T08:42:06.602Z,49.60
2018-01-28T08:44:34.222Z,51.06
2018-01-28T08:47:01.838Z,51.19
2018-01-28T08:49:29.455Z,53.75
2018-01-28T08:51:57.037Z,52.32
2018-01-28T08:54:24.657Z,51.72
2018-01-28T08:56:52.278Z,49.76
2018-01-28T08:59:19.865Z,47.54
2018-01-28T09:01:47.458Z,48.64
2018-01-28T09:04:15.064Z,47.39
2018-01-28T09:06:42.666Z,47.08
2018-01-28T09:09:10.253Z,43.81
2018-01-28T09:11:37.870Z,44.56
2018-01-28T09:14:05.482Z,43.29
2018-01-28T09:16:33.064Z,45.29
2018-01-28T09:19:00.691Z,45.71
2018-01-28T09:21:28.282Z,48.63
2018-01-28T09:23:55.862Z,45.87
2018-01-28T09:26:23.496Z,43.98
2018-01-28T09:28:51.074Z,41.28
2018-01-28T09:31:18.653Z,38.37
2018-01-28T09:33:46.270Z,40.04
2018-01-28T09:36:13.857Z,39.74
2018-01-28T09:38:41.431Z,45.26
2018-01-28T09:41:09.086Z,42.23
2018-01-28T09:43:36.646Z,42.41
2018-01-28T09:46:04.271Z,39.06
2018-01-28T09:48:31.871Z,41.90
2018-01-28T09:50:59.436Z,40.83
2018-01-28T09:53:26.996Z,39.95
2018-01-28T09:55:54.590Z,38.65
2018-01-28T09:58:22.145Z,38.79
2018-01-28T10:00:49.715Z,39.20
2018-01-28T10:03:17.300Z,38.78
2018-01-28T10:05:44.864Z,39.27
2018-01-28T10:08:12.478Z,39.67
2018-01-28T10:10:40.075Z,36.90
2018-01-28T10:13:07.652Z,34.73
2018-01-28T10:15:35.240Z,33.83
2018-01-28T10:18:02.834Z,38.03
2018-01-28T10:20:30.401Z,36.65
2018-01-28T10:22:57.972Z,36.36
2018-01-28T10:25:25.575Z,37.71
2018-01-28T10:27:53.144Z,35.60
2018-01-28T10:30:20.722Z,35.92
2018-01-28T10:32:48.340Z,33.15
2018-01-28T10:35:15.940Z,32.64
2018-01-28T10:37:43.515Z,32.25
2018-01-28T10:40:11.144Z,33.40
2018-01-28T10:42:38.718Z,32.87
2018-01-28T10:45:06.281Z,34.30
2018-01-28T10:47:33.886Z,32.72
2018-01-28T10:50:01.477Z,33.87
2018-01-28T10:52:29.042Z,30.71
2018-01-28T10:54:56.636Z,30.20
2018-01-28T10:57:24.212Z,31.95
2018-01-28T10:59:51.765Z,32.33
2018-01-28T11:02:19.350Z,31.46
2018-01-28T11:04:46.915Z,32.97
2018-01-28T11:07:14.502Z,33.33
2018-01-28T11:09:42.109Z,34.02
2018-01-28T11:12:09.669Z,34.66
2018-01-28T11:14:37.223Z,33.19
2018-01-28T11:17:04.870Z,31.93
2018-01-28T11:19:32.452Z,30.69
2018-01-28T11:22:00.042Z,30.12
2018-01-28T11:24:27.695Z,29.55
2018-01-28T11:26:55.297Z,29.92
2018-01-28T11:29:22.869Z,32.60
2018-01-28T11:31:50.531Z,29.86
2018-01-28T11:34:18.080Z,28.67
2018-01-28T11:36:45.663Z,28.63
2018-01-28T11:39:13.310Z,28.92
2018-01-28T11:41:40.897Z,33.23
2018-01-28T11:44:08.474Z,33.13
2018-01-28T11:46:36.083Z,34.54
2018-01-28T11:49:03.702Z,33.13
2018-01-28T11:51:31.270Z,31.03
2018-01-28T11:53:58.878Z,33.25
2018-01-28T11:56:26.787Z,31.41
2018-01-28T11:58:55.069Z,30.61
2018-01-28T12:01:22.728Z,28.90
2018-01-28T12:03:50.290Z,31.83
2018-01-28T12:06:19.257Z,28.50
2018-01-28T12:08:48.689Z,28.53
2018-01-28T12:11:17.784Z,31.08
2018-01-28T12:13:47.719Z,31.13
2018-01-28T12:16:15.495Z,31.39
2018-01-28T12:18:43.064Z,29.50
2018-01-28T12:21:10.638Z,32.01
2018-01-28T12:23:38.241Z,32.48
2018-01-28T12:26:05.815Z,31.38
2018-01-28T12:28:33.471Z,31.52
2018-01-28T12:31:01.086Z,31.83
2018-01-28T12:33:28.688Z,35.12
2018-01-28T12:35:56.253Z,32.65
2018-01-28T12:40:57.672Z,34.41
2018-01-28T12:43:25.284Z,33.28
2018-01-28T12:45:52.866Z,31.54
2018-01-28T12:48:20.438Z,32.60
2018-01-28T12:50:48.054Z,29.40
2018-01-28T12:53:15.628Z,29.12
2018-01-28T12:55:43.214Z,29.74
2018-01-28T12:58:10.805Z,29.60
2018-01-28T13:00:38.376Z,30.86
2018-01-28T13:03:05.932Z,29.22
2018-01-28T13:05:33.547Z,27.56
2018-01-28T13:08:01.129Z,27.93
2018-01-28T13:10:28.701Z,26.58
2018-01-28T13:12:56.302Z,26.25
2018-01-28T13:15:23.909Z,27.94
2018-01-28T13:17:51.479Z,29.35
2018-01-28T13:20:19.064Z,31.50
2018-01-28T13:22:46.636Z,33.25
2018-01-28T13:25:14.223Z,33.22
2018-01-28T13:27:41.813Z,34.43
2018-01-28T13:30:09.479Z,32.21
2018-01-28T13:32:37.046Z,34.13
2018-01-28T13:35:04.680Z,33.00
2018-01-28T13:37:32.250Z,31.67
2018-01-28T13:39:59.810Z,31.72
2018-01-28T13:42:27.422Z,32.59
2018-01-28T13:44:55.065Z,32.41
2018-01-28T13:47:22.655Z,31.45
2018-01-28T13:49:50.274Z,30.32
2018-01-28T13:52:17.831Z,29.70
2018-01-28T13:54:45.406Z,30.15
2018-01-28T13:57:13.026Z,30.30
2018-01-28T13:59:40.595Z,30.96
2018-01-28T14:02:08.212Z,31.44
2018-01-28T14:04:35.821Z,31.42
2018-01-28T14:07:03.403Z,31.52
2018-01-28T14:09:31.082Z,32.82
2018-01-28T14:11:58.686Z,33.67
2018-01-28T14:14:26.268Z,35.15
2018-01-28T14:16:53.850Z,35.33
2018-01-28T14:19:21.463Z,36.49
2018-01-28T14:21:49.022Z,37.58
2018-01-28T14:24:16.602Z,39.67
2018-01-28T14:26:44.221Z,41.84
2018-01-28T14:29:11.788Z,42.73
2018-01-28T14:31:39.412Z,43.66
2018-01-28T14:34:07.017Z,44.64
2018-01-28T14:36:34.579Z,45.90
2018-01-28T14:39:02.230Z,47.38
2018-01-28T14:41:29.850Z,48.98
2018-01-28T14:43:57.449Z,51.59
2018-01-28T14:46:25.066Z,49.74
2018-01-28T14:48:52.703Z,52.59
2018-01-28T14:51:20.379Z,53.76
2018-01-28T14:53:48.036Z,54.96
2018-01-28T14:56:15.684Z,53.38
2018-01-28T14:58:43.318Z,56.03
2018-01-28T15:01:10.881Z,55.30
2018-01-28T15:03:38.505Z,56.54
2018-01-28T15:06:06.099Z,57.11
2018-01-28T15:08:33.674Z,58.00
2018-01-28T15:11:01.274Z,60.48
2018-01-28T15:13:28.838Z,60.04
2018-01-28T15:15:56.396Z,64.77
2018-01-28T15:18:24.000Z,66.98
2018-01-28T15:20:51.592Z,69.43
2018-01-28T15:23:19.212Z,69.07
2018-01-28T15:25:46.830Z,68.61
2018-01-28T15:28:14.398Z,67.68
2018-01-28T15:30:41.970Z,64.75
2018-01-28T15:33:09.579Z,62.35
2018-01-28T15:35:37.151Z,60.38
2018-01-28T15:38:04.758Z,61.85
2018-01-28T15:40:32.373Z,62.79
2018-01-28T15:42:59.971Z,63.65
2018-01-28T15:45:27.529Z,66.16
2018-01-28T15:47:55.131Z,66.41
2018-01-28T15:50:22.765Z,66.98
2018-01-28T15:52:50.454Z,67.53
2018-01-28T15:55:18.073Z,69.63
2018-01-28T15:57:45.667Z,70.95
2018-01-28T16:00:13.262Z,70.81
2018-01-28T16:02:40.847Z,70.83
2018-01-28T16:05:08.486Z,73.03
2018-01-28T16:07:36.070Z,73.71
2018-01-28T16:10:03.685Z,73.93
2018-01-28T16:12:31.258Z,74.15
2018-01-28T16:14:58.822Z,76.55
2018-01-28T16:17:26.495Z,74.91
2018-01-28T16:19:54.055Z,73.61
2018-01-28T16:22:21.650Z,74.24
2018-01-28T16:24:49.296Z,75.40
2018-01-28T16:27:16.994Z,75.14
2018-01-28T16:29:44.654Z,75.67
2018-01-28T16:32:12.285Z,75.45
2018-01-28T16:34:39.857Z,77.23
2018-01-28T16:37:07.415Z,76.58
2018-01-28T16:39:35.014Z,77.41
2018-01-28T16:42:02.587Z,77.40
2018-01-28T16:44:30.232Z,78.92
2018-01-28T16:46:57.835Z,78.10
2018-01-28T16:49:25.460Z,78.47
2018-01-28T16:51:53.037Z,79.75
2018-01-28T16:54:20.644Z,79.86
2018-01-28T16:56:48.227Z,80.89
2018-01-28T16:59:15.800Z,80.83
2018-01-28T17:01:43.399Z,80.65
2018-01-28T17:04:10.951Z,80.97
2018-01-28T17:06:38.632Z,81.05
2018-01-28T17:09:06.283Z,81.97
2018-01-28T17:11:33.898Z,81.73
2018-01-28T17:14:01.515Z,82.24
2018-01-28T17:16:29.104Z,82.50
2018-01-28T17:18:56.662Z,82.86
2018-01-28T17:21:24.271Z,82.94
2018-01-28T17:23:51.926Z,82.53
2018-01-28T17:26:19.512Z,83.03
2018-01-28T17:28:47.081Z,82.63
2018-01-28T17:31:14.703Z,81.66
2018-01-28T17:33:42.751Z,82.78
2018-01-28T17:36:10.364Z,82.84
2018-01-28T17:38:38.112Z,83.10
2018-01-28T17:41:05.706Z,82.35
2018-01-28T17:43:34.084Z,83.40
2018-01-28T17:46:01.762Z,84.00
2018-01-28T17:48:29.328Z,83.04
2018-01-28T17:50:57.341Z,83.57
2018-01-28T17:53:25.023Z,82.73
2018-01-28T17:55:52.627Z,83.18
2018-01-28T17:58:20.246Z,83.15
2018-01-28T18:00:47.852Z,83.94
2018-01-28T18:03:15.487Z,84.85
2018-01-28T18:05:43.068Z,84.78
2018-01-28T18:08:10.746Z,84.96
2018-01-28T18:10:38.417Z,85.01
2018-01-28T18:13:06.069Z,84.41
2018-01-28T18:15:33.665Z,84.26
2018-01-28T18:18:01.226Z,84.15
2018-01-28T18:20:28.838Z,85.46
2018-01-28T18:22:56.508Z,85.72
2018-01-28T18:25:24.074Z,85.59
2018-01-28T18:27:51.665Z,85.92
2018-01-28T18:30:19.510Z,86.14
2018-01-28T18:32:47.097Z,86.39
2018-01-28T18:35:14.689Z,87.13
2018-01-28T18:37:42.281Z,87.14
2018-01-28T18:40:09.856Z,87.43
2018-01-28T18:42:37.504Z,87.77
2018-01-28T18:45:05.158Z,87.49
2018-01-28T18:47:32.889Z,87.44
2018-01-28T18:50:00.459Z,87.60
2018-01-28T18:52:28.152Z,88.18
2018-01-28T18:54:55.725Z,88.43
2018-01-28T18:57:23.309Z,88.20
2018-01-28T18:59:51.126Z,88.42
2018-01-28T19:02:18.713Z,88.44
2018-01-28T19:04:46.295Z,88.51
2018-01-28T19:07:13.930Z,87.94
2018-01-28T19:09:41.572Z,88.08
2018-01-28T19:12:09.206Z,88.45
2018-01-28T19:14:37.048Z,88.74
2018-01-28T19:17:04.732Z,89.03
2018-01-28T19:19:32.354Z,88.57
2018-01-28T19:22:00.032Z,87.75
2018-01-28T19:24:27.632Z,87.08
2018-01-28T19:26:55.241Z,87.32
2018-01-28T19:29:22.883Z,87.95
2018-01-28T19:31:50.470Z,88.27
2018-01-28T19:34:18.032Z,88.02
2018-01-28T19:36:45.635Z,88.33
2018-01-28T19:39:13.248Z,88.48
2018-01-28T19:41:40.813Z,88.54
2018-01-28T19:44:08.437Z,88.65
2018-01-28T19:46:36.059Z,87.90
2018-01-28T19:49:03.661Z,87.80
2018-01-28T19:51:31.317Z,88.37
2018-01-28T19:53:58.887Z,89.55
2018-01-28T19:56:26.494Z,89.66
2018-01-28T19:58:54.113Z,89.94
2018-01-28T20:01:21.712Z,90.36
2018-01-28T20:03:49.285Z,90.49
2018-01-28T20:06:16.902Z,90.22
2018-01-28T20:08:44.464Z,89.84
2018-01-28T20:11:12.049Z,90.01
2018-01-28T20:13:39.660Z,90.13
2018-01-28T20:16:07.428Z,89.46
2018-01-28T20:18:35.030Z,89.45
2018-01-28T20:21:02.652Z,89.19
2018-01-28T20:23:30.412Z,89.29
2018-01-28T20:25:58.121Z,88.90
2018-01-28T20:28:25.735Z,88.96
2018-01-28T20:30:53.336Z,88.60
2018-01-28T20:33:20.956Z,89.01
2018-01-28T20:35:48.630Z,89.82
2018-01-28T20:38:16.220Z,90.15
2018-01-28T20:40:43.827Z,90.25
2018-01-28T20:43:11.441Z,90.55
2018-01-28T20:45:39.080Z,90.81
2018-01-28T20:48:06.637Z,89.83
2018-01-28T20:50:34.264Z,89.73
2018-01-28T20:53:01.871Z,90.15
2018-01-28T20:55:29.448Z,90.32
2018-01-28T20:57:57.045Z,90.54
2018-01-28T21:00:24.691Z,90.54
2018-01-28T21:02:52.251Z,90.26
2018-01-28T21:05:19.897Z,90.38
2018-01-28T21:07:47.509Z,91.48
2018-01-28T21:10:15.099Z,91.50
2018-01-28T21:12:42.750Z,92.39
2018-01-28T21:15:13.644Z,91.78
2018-01-28T21:17:41.376Z,90.82
2018-01-28T21:20:08.968Z,89.96
2018-01-28T21:22:36.561Z,89.92
2018-01-28T21:25:04.229Z,90.55
2018-01-28T21:27:31.896Z,89.99
2018-01-28T21:29:59.542Z,89.77
2018-01-28T21:32:27.112Z,89.76
2018-01-28T21:34:54.811Z,89.99
2018-01-28T21:37:22.403Z,90.25
2018-01-28T21:39:49.995Z,90.33
2018-01-28T21:42:18.526Z,90.42
2018-01-28T21:44:46.100Z,90.24
2018-01-28T21:47:13.745Z,89.63
2018-01-28T21:49:41.347Z,89.33
2018-01-28T21:52:08.944Z,89.83
2018-01-28T21:54:36.586Z,90.18
2018-01-28T21:57:04.192Z,89.97
2018-01-28T21:59:31.809Z,89.84
2018-01-28T22:01:59.376Z,89.90
2018-01-28T22:04:26.991Z,89.74
2018-01-28T22:06:54.588Z,89.99
2018-01-28T22:09:24.727Z,90.38
2018-01-28T22:11:52.343Z,90.66
2018-01-28T22:14:19.931Z,90.59
2018-01-28T22:16:47.495Z,90.37
2018-01-28T22:19:15.139Z,90.54
2018-01-28T22:21:42.786Z,90.48
2018-01-28T22:24:10.340Z,90.47
2018-01-28T22:26:37.982Z,90.86
2018-01-28T22:29:05.624Z,90.94
2018-01-28T22:31:33.211Z,91.07
2018-01-28T22:34:00.845Z,90.76
2018-01-28T22:36:28.447Z,90.55
2018-01-28T22:38:56.106Z,90.61
2018-01-28T22:41:23.692Z,90.83
2018-01-28T22:43:51.257Z,90.98
2018-01-28T22:46:18.856Z,91.43
2018-01-28T22:48:46.434Z,91.68
2018-01-28T22:51:14.026Z,91.85
2018-01-28T22:53:41.622Z,91.69
2018-01-28T22:56:09.207Z,91.82
2018-01-28T22:58:36.787Z,92.10
2018-01-28T23:01:04.415Z,91.85
2018-01-28T23:03:32.022Z,91.44
2018-01-28T23:05:59.597Z,91.58
2018-01-28T23:08:27.207Z,92.00
2018-01-28T23:10:54.779Z,91.98
2018-01-28T23:13:22.344Z,91.57
2018-01-28T23:15:49.970Z,91.06
2018-01-28T23:18:17.542Z,91.08
2018-01-28T23:20:45.149Z,91.68
2018-01-28T23:23:12.734Z,92.25
2018-01-28T23:25:40.405Z,91.30
2018-01-28T23:28:08.040Z,90.81
2018-01-28T23:30:35.654Z,90.95
2018-01-28T23:33:03.233Z,91.15
2018-01-28T23:35:30.835Z,90.67
2018-01-28T23:37:58.506Z,90.90
2018-01-28T23:40:26.094Z,91.11
2018-01-28T23:42:53.680Z,91.11
2018-01-28T23:45:21.275Z,90.86
2018-01-28T23:47:48.854Z,90.76
2018-01-28T23:50:16.437Z,90.90
2018-01-28T23:52:44.049Z,90.61
2018-01-28T23:55:11.614Z,90.41
2018-01-28T23:57:39.188Z,91.99
